createdAt,value
2022-07-26T00:01:55.853Z,26.83
2022-07-26T00:06:58.504Z,26.88
2022-07-26T00:12:00.952Z,26.73
2022-07-26T00:17:03.969Z,26.50
2022-07-26T00:22:25.276Z,26.32
2022-07-26T00:27:27.720Z,26.34
2022-07-26T00:32:30.127Z,25.73
2022-07-26T00:37:32.575Z,25.36
2022-07-26T00:42:34.682Z,25.83
2022-07-26T00:47:40.024Z,25.63
2022-07-26T00:52:44.136Z,25.40
2022-07-26T00:57:46.229Z,25.48
2022-07-26T01:02:50.001Z,25.45
2022-07-26T01:07:53.490Z,25.38
2022-07-26T01:12:55.538Z,26.22
2022-07-26T01:17:57.989Z,26.35
2022-07-26T01:23:00.536Z,26.29
2022-07-26T01:28:04.020Z,26.34
2022-07-26T01:33:06.626Z,26.29
2022-07-26T01:38:09.438Z,26.39
2022-07-26T01:43:12.002Z,26.28
2022-07-26T01:48:14.433Z,25.47
2022-07-26T01:53:17.119Z,25.19
2022-07-26T01:58:19.785Z,25.54
2022-07-26T02:03:21.845Z,25.93
2022-07-26T02:08:23.897Z,25.85
2022-07-26T02:13:37.734Z,24.72
2022-07-26T02:18:42.968Z,24.21
2022-07-26T02:23:45.043Z,23.88
2022-07-26T02:28:47.058Z,24.61
2022-07-26T02:33:49.509Z,24.88
2022-07-26T02:38:51.953Z,24.27
2022-07-26T02:43:55.969Z,23.39
2022-07-26T02:48:59.757Z,23.31
2022-07-26T02:54:02.261Z,23.28
2022-07-26T02:59:04.829Z,23.38
2022-07-26T03:04:10.230Z,23.73
2022-07-26T03:09:13.246Z,24.09
2022-07-26T03:14:15.693Z,24.06
2022-07-26T03:19:18.095Z,24.20
2022-07-26T03:24:20.525Z,23.94
2022-07-26T03:29:24.124Z,23.59
2022-07-26T03:34:27.014Z,23.54
2022-07-26T03:39:29.427Z,23.56
2022-07-26T03:44:31.881Z,23.38
2022-07-26T03:49:34.689Z,23.31
2022-07-26T03:54:37.451Z,22.90
2022-07-26T03:59:39.930Z,22.98
2022-07-26T04:04:43.691Z,23.66
2022-07-26T04:09:48.895Z,24.05
2022-07-26T04:14:51.296Z,24.67
2022-07-26T04:19:53.898Z,25.09
2022-07-26T04:24:56.311Z,25.19
2022-07-26T04:29:58.837Z,24.94
2022-07-26T04:35:01.282Z,23.85
2022-07-26T04:40:03.911Z,23.93
2022-07-26T04:45:08.521Z,23.11
2022-07-26T04:50:14.314Z,23.17
2022-07-26T04:55:18.424Z,23.76
2022-07-26T05:00:24.930Z,24.06
2022-07-26T05:05:31.119Z,23.48
2022-07-26T05:10:37.056Z,23.44
2022-07-26T05:15:39.940Z,23.46
2022-07-26T05:20:44.960Z,23.03
2022-07-26T05:25:47.759Z,22.99
2022-07-26T05:30:50.569Z,23.65
2022-07-26T05:35:53.090Z,23.59
2022-07-26T05:40:55.588Z,23.81
2022-07-26T05:45:58.588Z,24.03
2022-07-26T05:51:02.393Z,23.03
2022-07-26T05:56:05.732Z,22.61
2022-07-26T06:01:08.211Z,23.04
2022-07-26T06:06:11.544Z,23.61
2022-07-26T06:11:13.967Z,24.82
2022-07-26T06:16:16.594Z,25.47
2022-07-26T06:21:19.046Z,25.61
2022-07-26T06:26:23.853Z,25.79
2022-07-26T06:31:26.589Z,26.00
2022-07-26T06:36:30.958Z,26.05
2022-07-26T06:41:33.785Z,26.02
2022-07-26T06:46:36.507Z,26.11
2022-07-26T06:51:39.033Z,25.94
2022-07-26T06:56:41.481Z,25.61
2022-07-26T07:01:55.671Z,26.28
2022-07-26T07:07:05.157Z,26.01
2022-07-26T07:12:10.266Z,25.73
2022-07-26T07:17:18.508Z,25.83
2022-07-26T07:22:22.803Z,26.57
2022-07-26T07:27:25.254Z,27.15
2022-07-26T07:32:30.118Z,26.82
2022-07-26T07:37:52.704Z,27.18
2022-07-26T07:42:56.440Z,27.35
2022-07-26T07:47:58.972Z,27.83
2022-07-26T07:53:02.113Z,28.30
2022-07-26T07:58:04.788Z,28.18
2022-07-26T08:03:07.347Z,28.39
2022-07-26T08:08:10.670Z,29.06
2022-07-26T08:13:13.119Z,28.09
2022-07-26T08:18:15.549Z,28.67
2022-07-26T08:23:20.374Z,28.49
2022-07-26T08:28:38.140Z,28.97
2022-07-26T08:33:46.498Z,29.34
2022-07-26T08:38:49.693Z,29.72
2022-07-26T08:43:53.783Z,30.08
2022-07-26T08:48:57.511Z,29.81
2022-07-26T08:54:05.614Z,30.63
2022-07-26T08:59:20.851Z,30.42
2022-07-26T09:04:43.385Z,30.98
2022-07-26T09:09:57.108Z,30.18
2022-07-26T09:15:01.243Z,28.95
2022-07-26T09:20:25.936Z,29.07
2022-07-26T09:25:33.821Z,30.87
2022-07-26T09:30:36.500Z,30.34
2022-07-26T09:35:50.610Z,29.47
2022-07-26T09:40:55.524Z,30.83
2022-07-26T09:46:07.551Z,29.58
2022-07-26T09:51:12.250Z,28.35
2022-07-26T09:56:15.082Z,31.74
2022-07-26T10:01:17.611Z,30.37
2022-07-26T10:06:24.994Z,30.70
2022-07-26T10:11:55.403Z,30.87
2022-07-26T10:16:57.886Z,30.65
2022-07-26T10:22:45.758Z,32.17
2022-07-26T10:27:56.012Z,34.06
2022-07-26T10:33:13.558Z,35.25
2022-07-26T10:38:24.246Z,34.71
2022-07-26T10:43:40.719Z,34.15
2022-07-26T10:48:57.772Z,32.80
2022-07-26T10:54:02.276Z,33.17
2022-07-26T10:59:06.561Z,35.71
2022-07-26T11:04:29.302Z,36.16
2022-07-26T11:09:35.334Z,34.86
2022-07-26T11:14:37.831Z,35.42
2022-07-26T11:19:40.636Z,33.65
2022-07-26T11:24:44.263Z,33.07
2022-07-26T11:29:49.260Z,33.35
2022-07-26T11:35:04.633Z,33.61
2022-07-26T11:40:07.702Z,35.58
2022-07-26T11:45:11.418Z,34.00
2022-07-26T11:50:21.847Z,33.11
2022-07-26T11:55:31.434Z,33.61
2022-07-26T12:00:34.075Z,33.75
2022-07-26T12:05:36.790Z,34.08
2022-07-26T12:10:39.542Z,32.29
2022-07-26T12:15:47.790Z,36.65
2022-07-26T12:21:04.986Z,36.76
2022-07-26T12:26:23.518Z,33.35
2022-07-26T12:31:34.314Z,36.42
2022-07-26T12:36:37.069Z,37.35
2022-07-26T12:41:40.723Z,37.88
2022-07-26T12:46:47.545Z,37.61
2022-07-26T12:51:50.093Z,35.54
2022-07-26T12:56:52.554Z,32.88
2022-07-26T13:01:55.225Z,35.33
2022-07-26T13:06:57.885Z,32.63
2022-07-26T13:12:02.784Z,31.38
2022-07-26T13:17:06.667Z,32.99
2022-07-26T13:22:09.909Z,31.97
2022-07-26T13:27:12.463Z,34.46
2022-07-26T13:32:14.939Z,32.16
2022-07-26T13:37:17.476Z,32.39
2022-07-26T13:42:19.978Z,35.82
2022-07-26T13:47:22.462Z,36.73
2022-07-26T13:52:24.981Z,35.63
2022-07-26T13:57:52.909Z,36.13
2022-07-26T14:02:52.248Z,36.12
2022-07-26T14:07:56.131Z,35.76
2022-07-26T14:12:59.005Z,35.57
2022-07-26T14:18:01.990Z,35.31
2022-07-26T14:23:04.583Z,34.93
2022-07-26T14:28:07.044Z,33.71
2022-07-26T14:33:09.741Z,33.62
2022-07-26T14:38:12.511Z,33.89
2022-07-26T14:43:15.281Z,31.45
2022-07-26T14:48:37.523Z,30.94
2022-07-26T14:53:43.406Z,32.51
2022-07-26T14:58:45.890Z,31.66
2022-07-26T15:03:50.129Z,32.00
2022-07-26T15:08:52.689Z,32.70
2022-07-26T15:13:55.260Z,31.36
2022-07-26T15:18:57.808Z,30.71
2022-07-26T15:24:01.220Z,30.65
2022-07-26T15:29:03.723Z,30.35
2022-07-26T15:34:09.334Z,31.07
2022-07-26T15:39:17.634Z,30.72
2022-07-26T15:44:25.508Z,30.85
2022-07-26T15:49:28.428Z,30.81
2022-07-26T15:54:31.022Z,30.60
2022-07-26T15:59:33.634Z,30.18
2022-07-26T16:04:36.073Z,29.96
2022-07-26T16:09:38.624Z,29.62
2022-07-26T16:14:41.380Z,29.41
2022-07-26T16:19:43.827Z,29.35
2022-07-26T16:24:46.611Z,29.31
2022-07-26T16:29:52.333Z,29.27
2022-07-26T16:34:55.170Z,29.26
2022-07-26T16:39:57.643Z,29.25
2022-07-26T16:45:00.246Z,29.19
2022-07-26T16:50:02.739Z,29.20
2022-07-26T16:55:10.622Z,29.03
2022-07-26T17:00:15.915Z,28.94
2022-07-26T17:05:18.408Z,28.74
2022-07-26T17:10:21.065Z,28.79
2022-07-26T17:15:23.512Z,28.74
2022-07-26T17:20:26.071Z,28.60
2022-07-26T17:25:28.666Z,28.53
2022-07-26T17:30:31.107Z,28.42
2022-07-26T17:35:33.643Z,28.37
2022-07-26T17:40:36.953Z,28.34
2022-07-26T17:45:41.471Z,28.27
2022-07-26T17:50:43.989Z,28.19
2022-07-26T17:55:46.516Z,28.17
2022-07-26T18:00:49.049Z,28.08
2022-07-26T18:05:52.107Z,27.92
2022-07-26T18:10:58.662Z,27.99
2022-07-26T18:16:05.763Z,27.90
2022-07-26T18:21:08.808Z,27.77
2022-07-26T18:26:11.324Z,27.90
2022-07-26T18:31:13.928Z,27.89
2022-07-26T18:36:17.678Z,27.83
2022-07-26T18:41:20.293Z,27.89
2022-07-26T18:46:22.901Z,27.83
2022-07-26T18:51:26.648Z,27.70
2022-07-26T18:56:29.296Z,27.72
2022-07-26T19:01:31.924Z,27.74
2022-07-26T19:06:34.890Z,27.68
2022-07-26T19:11:37.610Z,27.70
2022-07-26T19:16:40.434Z,27.68
2022-07-26T19:21:46.762Z,27.79
2022-07-26T19:26:49.460Z,27.68
2022-07-26T19:31:51.962Z,27.66
2022-07-26T19:36:54.683Z,27.59
2022-07-26T19:41:57.630Z,27.59
2022-07-26T19:47:00.075Z,27.56
2022-07-26T19:52:02.601Z,27.59
2022-07-26T19:57:05.122Z,27.51
2022-07-26T20:02:08.110Z,27.33
2022-07-26T20:07:10.855Z,27.24
2022-07-26T20:12:13.429Z,27.04
2022-07-26T20:17:16.290Z,27.09
2022-07-26T20:22:18.852Z,27.08
2022-07-26T20:27:22.288Z,27.00
2022-07-26T20:32:24.834Z,26.87
2022-07-26T20:37:27.269Z,26.80
2022-07-26T20:42:29.706Z,26.88
2022-07-26T20:47:34.217Z,26.83
2022-07-26T20:52:41.758Z,26.75
2022-07-26T20:57:44.848Z,26.75
2022-07-26T21:02:47.809Z,26.67
2022-07-26T21:07:55.186Z,26.69
2022-07-26T21:13:01.927Z,26.71
2022-07-26T21:18:04.678Z,26.73
2022-07-26T21:23:17.190Z,26.67
2022-07-26T21:28:20.548Z,26.67
2022-07-26T21:33:26.185Z,26.65
2022-07-26T21:38:32.044Z,26.67
2022-07-26T21:43:34.682Z,26.65
2022-07-26T21:48:38.546Z,26.63
2022-07-26T21:53:41.213Z,26.68
2022-07-26T21:58:43.725Z,26.62
2022-07-26T22:03:46.139Z,26.57
2022-07-26T22:08:48.736Z,26.56
2022-07-26T22:13:51.257Z,26.41
2022-07-26T22:18:53.759Z,26.45
2022-07-26T22:23:56.460Z,26.37
2022-07-26T22:28:59.878Z,26.16
2022-07-26T22:34:02.640Z,26.22
2022-07-26T22:39:05.172Z,26.16
2022-07-26T22:44:13.823Z,25.29
2022-07-26T22:49:16.306Z,25.01
2022-07-26T22:54:18.820Z,25.05
2022-07-26T22:59:22.598Z,25.26
2022-07-26T23:04:25.021Z,25.15
2022-07-26T23:09:27.484Z,25.27
2022-07-26T23:14:29.910Z,25.48
2022-07-26T23:19:32.359Z,25.55
2022-07-26T23:24:34.915Z,25.69
2022-07-26T23:29:37.496Z,25.20
2022-07-26T23:34:40.004Z,25.46
2022-07-26T23:39:42.413Z,25.48
2022-07-26T23:44:44.846Z,25.50
2022-07-26T23:49:47.284Z,25.43
2022-07-26T23:54:49.751Z,25.38
2022-07-26T23:59:52.128Z,25.41
